sensor_id;sensor_type;location;lat;lon;timestamp;pressure;altitude;pressure_sealevel;temperature;humidity
21290;BME280;10804;48.988;2.408;2022-07-06T00:02:07;101923.72;;;23.60;53.50
21290;BME280;10804;48.988;2.408;2022-07-06T00:04:34;101930.09;;;23.58;53.31
21290;BME280;10804;48.988;2.408;2022-07-06T00:07:02;101918.75;;;23.54;53.38
21290;BME280;10804;48.988;2.408;2022-07-06T00:09:30;101926.00;;;23.52;53.43
21290;BME280;10804;48.988;2.408;2022-07-06T00:11:57;101927.88;;;23.50;53.40
21290;BME280;10804;48.988;2.408;2022-07-06T00:14:25;101937.69;;;23.50;53.19
21290;BME280;10804;48.988;2.408;2022-07-06T00:16:53;101929.09;;;23.45;53.27
21290;BME280;10804;48.988;2.408;2022-07-06T00:19:21;101927.41;;;23.44;53.25
21290;BME280;10804;48.988;2.408;2022-07-06T00:21:48;101923.09;;;23.41;53.28
21290;BME280;10804;48.988;2.408;2022-07-06T00:24:16;101922.25;;;23.41;53.28
21290;BME280;10804;48.988;2.408;2022-07-06T00:26:44;101923.31;;;23.38;53.38
21290;BME280;10804;48.988;2.408;2022-07-06T00:29:11;101928.78;;;23.35;53.13
21290;BME280;10804;48.988;2.408;2022-07-06T00:31:40;101926.25;;;23.34;53.13
21290;BME280;10804;48.988;2.408;2022-07-06T00:34:09;101921.94;;;23.31;53.17
21290;BME280;10804;48.988;2.408;2022-07-06T00:36:36;101934.50;;;23.29;53.26
21290;BME280;10804;48.988;2.408;2022-07-06T00:39:03;101936.38;;;23.27;53.50
21290;BME280;10804;48.988;2.408;2022-07-06T00:41:31;101932.94;;;23.25;53.50
21290;BME280;10804;48.988;2.408;2022-07-06T00:43:58;101922.50;;;23.22;53.60
21290;BME280;10804;48.988;2.408;2022-07-06T00:46:27;101919.91;;;23.21;53.38
21290;BME280;10804;48.988;2.408;2022-07-06T00:48:56;101924.38;;;23.20;53.33
21290;BME280;10804;48.988;2.408;2022-07-06T00:51:29;101921.97;;;23.16;53.33
21290;BME280;10804;48.988;2.408;2022-07-06T00:53:59;101923.00;;;23.13;53.28
21290;BME280;10804;48.988;2.408;2022-07-06T00:56:29;101921.38;;;23.11;53.56
21290;BME280;10804;48.988;2.408;2022-07-06T00:58:58;101931.16;;;23.10;53.48
21290;BME280;10804;48.988;2.408;2022-07-06T01:01:27;101929.53;;;23.08;53.33
21290;BME280;10804;48.988;2.408;2022-07-06T01:03:54;101920.03;;;23.04;53.61
21290;BME280;10804;48.988;2.408;2022-07-06T01:06:22;101925.41;;;23.02;53.48
21290;BME280;10804;48.988;2.408;2022-07-06T01:08:50;101927.31;;;23.00;53.60
21290;BME280;10804;48.988;2.408;2022-07-06T01:11:18;101932.72;;;22.99;53.54
21290;BME280;10804;48.988;2.408;2022-07-06T01:13:47;101935.38;;;22.99;53.47
21290;BME280;10804;48.988;2.408;2022-07-06T01:16:15;101933.75;;;22.96;53.35
21290;BME280;10804;48.988;2.408;2022-07-06T01:18:43;101930.41;;;22.93;53.66
21290;BME280;10804;48.988;2.408;2022-07-06T01:21:13;101927.88;;;22.91;53.45
21290;BME280;10804;48.988;2.408;2022-07-06T01:23:42;101936.78;;;22.90;53.42
21290;BME280;10804;48.988;2.408;2022-07-06T01:26:12;101941.25;;;22.90;53.45
21290;BME280;10804;48.988;2.408;2022-07-06T01:28:40;101931.63;;;22.87;53.55
21290;BME280;10804;48.988;2.408;2022-07-06T01:31:14;101937.13;;;22.84;53.34
21290;BME280;10804;48.988;2.408;2022-07-06T01:33:42;101933.72;;;22.82;53.59
21290;BME280;10804;48.988;2.408;2022-07-06T01:36:11;101934.81;;;22.78;53.46
21290;BME280;10804;48.988;2.408;2022-07-06T01:38:46;101929.56;;;22.77;53.43
21290;BME280;10804;48.988;2.408;2022-07-06T01:41:14;101931.47;;;22.75;53.35
21290;BME280;10804;48.988;2.408;2022-07-06T01:43:43;101935.09;;;22.74;53.30
21290;BME280;10804;48.988;2.408;2022-07-06T01:46:11;101928.88;;;22.73;53.38
21290;BME280;10804;48.988;2.408;2022-07-06T01:48:39;101937.13;;;22.69;53.56
21290;BME280;10804;48.988;2.408;2022-07-06T01:51:07;101936.28;;;22.68;53.72
21290;BME280;10804;48.988;2.408;2022-07-06T01:53:38;101931.13;;;22.65;53.55
21290;BME280;10804;48.988;2.408;2022-07-06T01:56:07;101938.41;;;22.62;53.67
21290;BME280;10804;48.988;2.408;2022-07-06T01:58:36;101925.13;;;22.62;53.72
21290;BME280;10804;48.988;2.408;2022-07-06T02:01:07;101931.50;;;22.59;53.55
21290;BME280;10804;48.988;2.408;2022-07-06T02:03:35;101929.88;;;22.57;53.59
21290;BME280;10804;48.988;2.408;2022-07-06T02:06:03;101925.50;;;22.56;53.37
21290;BME280;10804;48.988;2.408;2022-07-06T02:08:31;101930.88;;;22.54;53.48
21290;BME280;10804;48.988;2.408;2022-07-06T02:11:01;101928.38;;;22.51;53.67
21290;BME280;10804;48.988;2.408;2022-07-06T02:13:31;101921.53;;;22.47;53.63
21290;BME280;10804;48.988;2.408;2022-07-06T02:16:00;101925.97;;;22.47;53.64
21290;BME280;10804;48.988;2.408;2022-07-06T02:18:28;101924.25;;;22.46;53.61
21290;BME280;10804;48.988;2.408;2022-07-06T02:20:57;101930.59;;;22.43;53.71
21290;BME280;10804;48.988;2.408;2022-07-06T02:23:27;101915.69;;;22.41;53.59
21290;BME280;10804;48.988;2.408;2022-07-06T02:25:55;101914.88;;;22.39;53.58
21290;BME280;10804;48.988;2.408;2022-07-06T02:28:25;101915.81;;;22.38;53.52
21290;BME280;10804;48.988;2.408;2022-07-06T02:30:53;101910.69;;;22.35;53.49
21290;BME280;10804;48.988;2.408;2022-07-06T02:33:21;101908.97;;;22.34;53.56
21290;BME280;10804;48.988;2.408;2022-07-06T02:35:49;101903.75;;;22.32;53.50
21290;BME280;10804;48.988;2.408;2022-07-06T02:38:17;101906.56;;;22.29;53.77
21290;BME280;10804;48.988;2.408;2022-07-06T02:40:44;101905.72;;;22.29;53.65
21290;BME280;10804;48.988;2.408;2022-07-06T02:43:12;101908.53;;;22.26;53.70
21290;BME280;10804;48.988;2.408;2022-07-06T02:45:42;101905.97;;;22.24;53.43
21290;BME280;10804;48.988;2.408;2022-07-06T02:48:11;101903.31;;;22.24;53.62
21290;BME280;10804;48.988;2.408;2022-07-06T02:50:39;101899.00;;;22.22;53.49
21290;BME280;10804;48.988;2.408;2022-07-06T02:53:06;101905.44;;;22.18;53.87
21290;BME280;10804;48.988;2.408;2022-07-06T02:55:34;101910.84;;;22.16;53.69
21290;BME280;10804;48.988;2.408;2022-07-06T02:58:03;101915.47;;;22.13;53.83
21290;BME280;10804;48.988;2.408;2022-07-06T03:00:31;101922.56;;;22.12;53.87
21290;BME280;10804;48.988;2.408;2022-07-06T03:02:59;101923.50;;;22.11;53.86
21290;BME280;10804;48.988;2.408;2022-07-06T03:05:27;101925.41;;;22.09;53.55
21290;BME280;10804;48.988;2.408;2022-07-06T03:07:55;101921.09;;;22.07;53.66
21290;BME280;10804;48.988;2.408;2022-07-06T03:10:22;101920.28;;;22.06;53.63
21290;BME280;10804;48.988;2.408;2022-07-06T03:12:51;101922.13;;;22.04;53.74
21290;BME280;10804;48.988;2.408;2022-07-06T03:15:18;101935.50;;;22.03;53.67
21290;BME280;10804;48.988;2.408;2022-07-06T03:17:46;101924.97;;;22.01;53.62
21290;BME280;10804;48.988;2.408;2022-07-06T03:20:16;101928.63;;;21.99;53.86
21290;BME280;10804;48.988;2.408;2022-07-06T03:22:46;101929.66;;;21.96;53.70
21290;BME280;10804;48.988;2.408;2022-07-06T03:25:15;101928.13;;;21.92;53.74
21290;BME280;10804;48.988;2.408;2022-07-06T03:27:43;101929.81;;;21.93;53.72
21290;BME280;10804;48.988;2.408;2022-07-06T03:30:12;101925.47;;;21.92;53.79
21290;BME280;10804;48.988;2.408;2022-07-06T03:32:43;101930.84;;;21.91;53.87
21290;BME280;10804;48.988;2.408;2022-07-06T03:35:11;101942.50;;;21.88;53.65
21290;BME280;10804;48.988;2.408;2022-07-06T03:37:40;101934.69;;;21.85;53.65
21290;BME280;10804;48.988;2.408;2022-07-06T03:40:08;101944.38;;;21.86;53.91
21290;BME280;10804;48.988;2.408;2022-07-06T03:42:36;101938.28;;;21.84;53.90
21290;BME280;10804;48.988;2.408;2022-07-06T03:45:07;101935.78;;;21.81;53.92
21290;BME280;10804;48.988;2.408;2022-07-06T03:47:35;101927.91;;;21.80;53.77
21290;BME280;10804;48.988;2.408;2022-07-06T03:50:04;101935.97;;;21.78;53.75
21290;BME280;10804;48.988;2.408;2022-07-06T03:52:33;101945.81;;;21.76;53.90
21290;BME280;10804;48.988;2.408;2022-07-06T03:55:03;101935.19;;;21.76;53.75
21290;BME280;10804;48.988;2.408;2022-07-06T03:57:30;101943.28;;;21.73;53.71
21290;BME280;10804;48.988;2.408;2022-07-06T04:00:02;101936.28;;;21.72;53.85
21290;BME280;10804;48.988;2.408;2022-07-06T04:02:40;101938.16;;;21.70;53.89
21290;BME280;10804;48.988;2.408;2022-07-06T04:05:13;101948.91;;;21.67;53.70
21290;BME280;10804;48.988;2.408;2022-07-06T04:07:42;101946.25;;;21.67;53.68
21290;BME280;10804;48.988;2.408;2022-07-06T04:10:11;101943.75;;;21.64;53.83
21290;BME280;10804;48.988;2.408;2022-07-06T04:12:41;101947.34;;;21.63;53.85
21290;BME280;10804;48.988;2.408;2022-07-06T04:15:11;101944.75;;;21.62;53.75
21290;BME280;10804;48.988;2.408;2022-07-06T04:17:38;101954.59;;;21.60;53.91
21290;BME280;10804;48.988;2.408;2022-07-06T04:20:24;101947.59;;;21.59;53.91
21290;BME280;10804;48.988;2.408;2022-07-06T04:22:52;101957.44;;;21.57;53.85
21290;BME280;10804;48.988;2.408;2022-07-06T04:25:24;101960.16;;;21.55;53.95
21290;BME280;10804;48.988;2.408;2022-07-06T04:27:52;101955.78;;;21.54;53.68
21290;BME280;10804;48.988;2.408;2022-07-06T04:30:19;101951.41;;;21.53;53.95
21290;BME280;10804;48.988;2.408;2022-07-06T04:32:47;101956.88;;;21.50;53.93
21290;BME280;10804;48.988;2.408;2022-07-06T04:35:15;101950.72;;;21.50;54.19
21290;BME280;10804;48.988;2.408;2022-07-06T04:37:45;101948.13;;;21.48;53.99
21290;BME280;10804;48.988;2.408;2022-07-06T04:40:15;101946.41;;;21.47;53.81
21290;BME280;10804;48.988;2.408;2022-07-06T04:42:44;101950.03;;;21.46;53.89
21290;BME280;10804;48.988;2.408;2022-07-06T04:45:13;101954.53;;;21.44;53.96
21290;BME280;10804;48.988;2.408;2022-07-06T04:47:41;101957.16;;;21.44;53.80
21290;BME280;10804;48.988;2.408;2022-07-06T04:50:11;101949.44;;;21.40;54.06
21290;BME280;10804;48.988;2.408;2022-07-06T04:52:40;101954.75;;;21.40;53.87
21290;BME280;10804;48.988;2.408;2022-07-06T04:55:07;101958.28;;;21.40;54.07
21290;BME280;10804;48.988;2.408;2022-07-06T04:57:36;101959.13;;;21.41;54.02
21290;BME280;10804;48.988;2.408;2022-07-06T05:00:07;101959.28;;;21.38;53.96
21290;BME280;10804;48.988;2.408;2022-07-06T05:02:35;101958.34;;;21.39;53.94
21290;BME280;10804;48.988;2.408;2022-07-06T05:05:04;101964.53;;;21.39;54.02
21290;BME280;10804;48.988;2.408;2022-07-06T05:07:32;101961.09;;;21.37;54.07
21290;BME280;10804;48.988;2.408;2022-07-06T05:10:07;101953.97;;;21.38;53.94
21290;BME280;10804;48.988;2.408;2022-07-06T05:12:35;101961.09;;;21.37;54.10
21290;BME280;10804;48.988;2.408;2022-07-06T05:15:03;101962.00;;;21.36;54.04
21290;BME280;10804;48.988;2.408;2022-07-06T05:17:32;101953.16;;;21.37;53.99
21290;BME280;10804;48.988;2.408;2022-07-06T05:20:01;101954.84;;;21.38;53.90
21290;BME280;10804;48.988;2.408;2022-07-06T05:22:32;101959.28;;;21.38;53.94
21290;BME280;10804;48.988;2.408;2022-07-06T05:25:01;101954.94;;;21.37;53.92
21290;BME280;10804;48.988;2.408;2022-07-06T05:27:28;101952.97;;;21.40;53.87
21290;BME280;10804;48.988;2.408;2022-07-06T05:29:56;101960.94;;;21.40;53.90
21290;BME280;10804;48.988;2.408;2022-07-06T05:32:25;101963.59;;;21.40;53.91
21290;BME280;10804;48.988;2.408;2022-07-06T05:34:53;101962.66;;;21.41;53.90
21290;BME280;10804;48.988;2.408;2022-07-06T05:37:21;101965.25;;;21.43;53.79
21290;BME280;10804;48.988;2.408;2022-07-06T05:39:49;101963.53;;;21.42;53.90
21290;BME280;10804;48.988;2.408;2022-07-06T05:42:16;101974.97;;;21.42;53.89
21290;BME280;10804;48.988;2.408;2022-07-06T05:44:45;101980.28;;;21.42;53.99
21290;BME280;10804;48.988;2.408;2022-07-06T05:47:13;101979.28;;;21.45;53.84
21290;BME280;10804;48.988;2.408;2022-07-06T05:50:00;101977.50;;;21.45;53.75
21290;BME280;10804;48.988;2.408;2022-07-06T05:52:44;101966.78;;;21.47;53.88
21290;BME280;10804;48.988;2.408;2022-07-06T05:55:13;101966.72;;;21.48;53.76
21290;BME280;10804;48.988;2.408;2022-07-06T05:57:42;101970.25;;;21.49;53.83
21290;BME280;10804;48.988;2.408;2022-07-06T06:00:11;101972.72;;;21.52;53.82
21290;BME280;10804;48.988;2.408;2022-07-06T06:02:50;101971.78;;;21.53;53.87
21290;BME280;10804;48.988;2.408;2022-07-06T06:05:20;101963.75;;;21.54;53.82
21290;BME280;10804;48.988;2.408;2022-07-06T06:07:50;101961.88;;;21.56;53.75
21290;BME280;10804;48.988;2.408;2022-07-06T06:10:22;101975.91;;;21.58;53.67
21290;BME280;10804;48.988;2.408;2022-07-06T06:12:52;101974.91;;;21.61;53.63
21290;BME280;10804;48.988;2.408;2022-07-06T06:15:20;101980.09;;;21.64;53.61
21290;BME280;10804;48.988;2.408;2022-07-06T06:17:48;101987.09;;;21.65;53.64
21290;BME280;10804;48.988;2.408;2022-07-06T06:20:15;101982.66;;;21.65;53.68
21290;BME280;10804;48.988;2.408;2022-07-06T06:22:48;101994.00;;;21.69;53.54
21290;BME280;10804;48.988;2.408;2022-07-06T06:25:18;101989.47;;;21.71;53.70
21290;BME280;10804;48.988;2.408;2022-07-06T06:27:47;101985.78;;;21.73;53.49
21290;BME280;10804;48.988;2.408;2022-07-06T06:30:14;101985.66;;;21.76;53.58
21290;BME280;10804;48.988;2.408;2022-07-06T06:32:42;101988.22;;;21.78;53.67
21290;BME280;10804;48.988;2.408;2022-07-06T06:35:09;101983.59;;;21.81;53.42
21290;BME280;10804;48.988;2.408;2022-07-06T06:37:37;101979.16;;;21.82;53.69
21290;BME280;10804;48.988;2.408;2022-07-06T06:40:08;101983.34;;;21.86;53.26
21290;BME280;10804;48.988;2.408;2022-07-06T06:42:35;101991.06;;;21.90;53.54
21290;BME280;10804;48.988;2.408;2022-07-06T06:45:07;101997.09;;;21.94;53.43
21290;BME280;10804;48.988;2.408;2022-07-06T06:47:35;101992.59;;;21.96;53.46
21290;BME280;10804;48.988;2.408;2022-07-06T06:50:03;101996.00;;;21.98;53.37
21290;BME280;10804;48.988;2.408;2022-07-06T06:52:31;101994.03;;;22.01;53.29
21290;BME280;10804;48.988;2.408;2022-07-06T06:54:58;101984.19;;;22.03;53.17
21290;BME280;10804;48.988;2.408;2022-07-06T06:57:27;101991.06;;;22.07;53.36
21290;BME280;10804;48.988;2.408;2022-07-06T06:59:54;101984.19;;;22.03;53.26
21290;BME280;10804;48.988;2.408;2022-07-06T07:02:23;102000.50;;;22.13;53.14
21290;BME280;10804;48.988;2.408;2022-07-06T07:04:50;102000.25;;;22.17;53.20
21290;BME280;10804;48.988;2.408;2022-07-06T07:07:18;102004.38;;;22.23;53.06
21290;BME280;10804;48.988;2.408;2022-07-06T07:09:45;101999.00;;;22.24;53.35
21290;BME280;10804;48.988;2.408;2022-07-06T07:12:13;101995.22;;;22.28;53.03
21290;BME280;10804;48.988;2.408;2022-07-06T07:14:42;101994.13;;;22.32;53.17
21290;BME280;10804;48.988;2.408;2022-07-06T07:17:09;101999.19;;;22.37;52.99
21290;BME280;10804;48.988;2.408;2022-07-06T07:19:37;101999.00;;;22.40;53.22
21290;BME280;10804;48.988;2.408;2022-07-06T07:22:05;101995.28;;;22.44;53.26
21290;BME280;10804;48.988;2.408;2022-07-06T07:24:32;101994.28;;;22.46;52.86
21290;BME280;10804;48.988;2.408;2022-07-06T07:27:00;102001.06;;;22.52;53.01
21290;BME280;10804;48.988;2.408;2022-07-06T07:29:27;102001.94;;;22.52;52.79
21290;BME280;10804;48.988;2.408;2022-07-06T07:31:56;101998.91;;;22.58;53.00
21290;BME280;10804;48.988;2.408;2022-07-06T07:34:23;101993.44;;;22.61;53.03
21290;BME280;10804;48.988;2.408;2022-07-06T07:36:51;102001.22;;;22.64;53.13
21290;BME280;10804;48.988;2.408;2022-07-06T07:39:18;101995.59;;;22.70;52.91
21290;BME280;10804;48.988;2.408;2022-07-06T07:41:45;101988.38;;;22.72;52.96
21290;BME280;10804;48.988;2.408;2022-07-06T07:44:13;101988.09;;;22.77;53.00
21290;BME280;10804;48.988;2.408;2022-07-06T07:46:40;101994.13;;;22.80;52.68
21290;BME280;10804;48.988;2.408;2022-07-06T07:49:09;101991.38;;;22.82;52.82
21290;BME280;10804;48.988;2.408;2022-07-06T07:51:38;101990.16;;;22.87;52.98
21290;BME280;10804;48.988;2.408;2022-07-06T07:54:05;101984.69;;;22.90;52.95
21290;BME280;10804;48.988;2.408;2022-07-06T07:56:33;101990.69;;;22.94;52.74
21290;BME280;10804;48.988;2.408;2022-07-06T07:59:00;101981.66;;;22.96;53.03
21290;BME280;10804;48.988;2.408;2022-07-06T08:01:30;101990.25;;;23.01;53.12
21290;BME280;10804;48.988;2.408;2022-07-06T08:03:58;101983.13;;;23.02;52.89
21290;BME280;10804;48.988;2.408;2022-07-06T08:06:27;101986.38;;;23.07;53.04
21290;BME280;10804;48.988;2.408;2022-07-06T08:08:54;101990.66;;;23.09;53.21
21290;BME280;10804;48.988;2.408;2022-07-06T08:11:22;101971.75;;;23.14;53.16
21290;BME280;10804;48.988;2.408;2022-07-06T08:13:49;101982.19;;;23.18;52.88
21290;BME280;10804;48.988;2.408;2022-07-06T08:16:17;101982.03;;;23.21;52.97
21290;BME280;10804;48.988;2.408;2022-07-06T08:18:44;101978.28;;;23.24;53.22
21290;BME280;10804;48.988;2.408;2022-07-06T08:21:12;101980.72;;;23.28;53.14
21290;BME280;10804;48.988;2.408;2022-07-06T08:23:40;101986.03;;;23.28;53.49
21290;BME280;10804;48.988;2.408;2022-07-06T08:26:08;101975.88;;;23.35;53.25
21290;BME280;10804;48.988;2.408;2022-07-06T08:28:35;101985.50;;;23.37;53.14
21290;BME280;10804;48.988;2.408;2022-07-06T08:31:03;101984.34;;;23.41;53.09
21290;BME280;10804;48.988;2.408;2022-07-06T08:33:30;101978.94;;;23.43;53.29
21290;BME280;10804;48.988;2.408;2022-07-06T08:35:58;101978.75;;;23.46;53.19
21290;BME280;10804;48.988;2.408;2022-07-06T08:38:25;101979.44;;;23.49;53.53
21290;BME280;10804;48.988;2.408;2022-07-06T08:40:54;101979.06;;;23.55;53.24
21290;BME280;10804;48.988;2.408;2022-07-06T08:43:22;101977.38;;;23.54;53.30
21290;BME280;10804;48.988;2.408;2022-07-06T08:45:50;101969.84;;;23.61;53.39
21290;BME280;10804;48.988;2.408;2022-07-06T08:48:22;101969.56;;;23.65;53.63
21290;BME280;10804;48.988;2.408;2022-07-06T08:50:50;101964.09;;;23.68;53.60
21290;BME280;10804;48.988;2.408;2022-07-06T08:53:19;101969.13;;;23.73;53.63
21290;BME280;10804;48.988;2.408;2022-07-06T08:55:48;101969.97;;;23.73;53.50
21290;BME280;10804;48.988;2.408;2022-07-06T08:58:18;101963.53;;;23.77;53.80
21290;BME280;10804;48.988;2.408;2022-07-06T09:00:46;101961.44;;;23.82;53.57
21290;BME280;10804;48.988;2.408;2022-07-06T09:03:13;101954.28;;;23.83;53.73
21290;BME280;10804;48.988;2.408;2022-07-06T09:05:45;101962.81;;;23.89;53.83
21290;BME280;10804;48.988;2.408;2022-07-06T09:08:12;101962.63;;;23.92;53.70
21290;BME280;10804;48.988;2.408;2022-07-06T09:10:40;101962.44;;;23.95;53.84
21290;BME280;10804;48.988;2.408;2022-07-06T09:13:08;101955.09;;;23.99;53.81
21290;BME280;10804;48.988;2.408;2022-07-06T09:15:37;101961.22;;;24.01;53.76
21290;BME280;10804;48.988;2.408;2022-07-06T09:18:06;101963.75;;;24.02;53.88
21290;BME280;10804;48.988;2.408;2022-07-06T09:20:34;101948.53;;;24.04;53.91
21290;BME280;10804;48.988;2.408;2022-07-06T09:23:03;101949.19;;;24.08;53.85
21290;BME280;10804;48.988;2.408;2022-07-06T09:25:31;101955.19;;;24.11;54.08
21290;BME280;10804;48.988;2.408;2022-07-06T09:27:59;101951.31;;;24.17;53.83
21290;BME280;10804;48.988;2.408;2022-07-06T09:30:28;101948.72;;;24.15;54.05
21290;BME280;10804;48.988;2.408;2022-07-06T09:32:58;101953.84;;;24.18;54.07
21290;BME280;10804;48.988;2.408;2022-07-06T09:35:27;101945.03;;;24.18;54.17
21290;BME280;10804;48.988;2.408;2022-07-06T09:38:00;101954.53;;;24.22;54.20
21290;BME280;10804;48.988;2.408;2022-07-06T09:40:30;101951.56;;;24.26;54.15
21290;BME280;10804;48.988;2.408;2022-07-06T09:43:08;101957.56;;;24.30;54.34
21290;BME280;10804;48.988;2.408;2022-07-06T09:45:36;101945.84;;;24.32;54.20
21290;BME280;10804;48.988;2.408;2022-07-06T09:48:09;101947.38;;;24.36;54.31
21290;BME280;10804;48.988;2.408;2022-07-06T09:50:44;101947.19;;;24.39;54.28
21290;BME280;10804;48.988;2.408;2022-07-06T09:53:13;101950.59;;;24.41;54.14
21290;BME280;10804;48.988;2.408;2022-07-06T09:55:44;101951.25;;;24.45;54.10
21290;BME280;10804;48.988;2.408;2022-07-06T09:58:12;101947.56;;;24.47;54.49
21290;BME280;10804;48.988;2.408;2022-07-06T10:00:40;101945.63;;;24.49;54.29
21290;BME280;10804;48.988;2.408;2022-07-06T10:03:10;101948.13;;;24.52;54.47
21290;BME280;10804;48.988;2.408;2022-07-06T10:05:39;101950.53;;;24.57;54.35
21290;BME280;10804;48.988;2.408;2022-07-06T10:08:08;101951.38;;;24.57;54.32
21290;BME280;10804;48.988;2.408;2022-07-06T10:10:37;101945.84;;;24.60;54.36
21290;BME280;10804;48.988;2.408;2022-07-06T10:13:05;101937.63;;;24.63;54.21
21290;BME280;10804;48.988;2.408;2022-07-06T10:15:35;101936.59;;;24.66;54.46
21290;BME280;10804;48.988;2.408;2022-07-06T10:18:05;101942.78;;;24.66;54.35
21290;BME280;10804;48.988;2.408;2022-07-06T10:20:36;101950.38;;;24.72;54.34
21290;BME280;10804;48.988;2.408;2022-07-06T10:23:06;101948.38;;;24.75;54.27
21290;BME280;10804;48.988;2.408;2022-07-06T10:25:34;101950.84;;;24.78;54.35
21290;BME280;10804;48.988;2.408;2022-07-06T10:28:02;101950.72;;;24.80;54.57
21290;BME280;10804;48.988;2.408;2022-07-06T10:30:37;101953.13;;;24.84;54.34
21290;BME280;10804;48.988;2.408;2022-07-06T10:33:05;101942.34;;;24.86;54.34
21290;BME280;10804;48.988;2.408;2022-07-06T10:35:34;101951.97;;;24.88;54.36
21290;BME280;10804;48.988;2.408;2022-07-06T10:38:05;101948.97;;;24.93;54.38
21290;BME280;10804;48.988;2.408;2022-07-06T10:40:33;101942.69;;;24.94;54.46
21290;BME280;10804;48.988;2.408;2022-07-06T10:43:18;101946.88;;;24.98;54.39
21290;BME280;10804;48.988;2.408;2022-07-06T10:45:51;101942.28;;;25.00;54.42
21290;BME280;10804;48.988;2.408;2022-07-06T10:48:20;101948.38;;;25.02;54.55
21290;BME280;10804;48.988;2.408;2022-07-06T10:50:52;101943.69;;;25.05;54.43
21290;BME280;10804;48.988;2.408;2022-07-06T10:53:24;101952.34;;;25.09;54.42
21290;BME280;10804;48.988;2.408;2022-07-06T10:55:52;101944.16;;;25.12;54.47
21290;BME280;10804;48.988;2.408;2022-07-06T10:58:41;101937.63;;;25.16;54.40
21290;BME280;10804;48.988;2.408;2022-07-06T11:01:14;101940.13;;;25.19;54.51
21290;BME280;10804;48.988;2.408;2022-07-06T11:03:42;101936.50;;;25.20;54.39
21290;BME280;10804;48.988;2.408;2022-07-06T11:06:14;101936.31;;;25.23;54.46
21290;BME280;10804;48.988;2.408;2022-07-06T11:08:55;101936.94;;;25.26;54.50
21290;BME280;10804;48.988;2.408;2022-07-06T11:11:25;101941.25;;;25.29;54.46
21290;BME280;10804;48.988;2.408;2022-07-06T11:13:59;101933.97;;;25.31;54.45
21290;BME280;10804;48.988;2.408;2022-07-06T11:16:29;101926.69;;;25.33;54.42
21290;BME280;10804;48.988;2.408;2022-07-06T11:19:05;101930.97;;;25.35;54.48
21290;BME280;10804;48.988;2.408;2022-07-06T11:21:44;101928.22;;;25.37;54.40
21290;BME280;10804;48.988;2.408;2022-07-06T11:24:13;101919.97;;;25.40;54.47
21290;BME280;10804;48.988;2.408;2022-07-06T11:26:42;101913.56;;;25.42;54.27
21290;BME280;10804;48.988;2.408;2022-07-06T11:29:10;101910.69;;;25.45;54.52
21290;BME280;10804;48.988;2.408;2022-07-06T11:31:39;101902.56;;;25.47;54.46
21290;BME280;10804;48.988;2.408;2022-07-06T11:34:09;101908.66;;;25.49;54.32
21290;BME280;10804;48.988;2.408;2022-07-06T11:36:37;101916.47;;;25.52;54.49
21290;BME280;10804;48.988;2.408;2022-07-06T11:39:07;101918.19;;;25.53;54.34
21290;BME280;10804;48.988;2.408;2022-07-06T11:41:34;101909.94;;;25.56;54.59
21290;BME280;10804;48.988;2.408;2022-07-06T11:44:03;101905.38;;;25.58;54.58
21290;BME280;10804;48.988;2.408;2022-07-06T11:46:32;101899.91;;;25.59;54.57
21290;BME280;10804;48.988;2.408;2022-07-06T11:49:01;101897.13;;;25.61;54.54
21290;BME280;10804;48.988;2.408;2022-07-06T11:51:30;101888.88;;;25.64;54.54
21290;BME280;10804;48.988;2.408;2022-07-06T11:53:59;101889.66;;;25.66;54.68
21290;BME280;10804;48.988;2.408;2022-07-06T11:56:29;101879.72;;;25.68;54.58
21290;BME280;10804;48.988;2.408;2022-07-06T11:58:58;101887.50;;;25.71;54.40
21290;BME280;10804;48.988;2.408;2022-07-06T12:01:27;101885.59;;;25.73;54.53
21290;BME280;10804;48.988;2.408;2022-07-06T12:03:57;101888.03;;;25.76;54.49
21290;BME280;10804;48.988;2.408;2022-07-06T12:06:26;101882.47;;;25.79;54.67
21290;BME280;10804;48.988;2.408;2022-07-06T12:08:55;101883.25;;;25.81;54.50
21290;BME280;10804;48.988;2.408;2022-07-06T12:11:24;101876.81;;;25.83;54.39
21290;BME280;10804;48.988;2.408;2022-07-06T12:13:55;101880.13;;;25.87;54.59
21290;BME280;10804;48.988;2.408;2022-07-06T12:16:29;101879.06;;;25.89;54.43
21290;BME280;10804;48.988;2.408;2022-07-06T12:18:57;101882.38;;;25.93;54.57
21290;BME280;10804;48.988;2.408;2022-07-06T12:21:24;101885.81;;;25.95;54.68
21290;BME280;10804;48.988;2.408;2022-07-06T12:23:53;101880.25;;;25.98;54.44
21290;BME280;10804;48.988;2.408;2022-07-06T12:26:23;101882.69;;;26.01;54.46
21290;BME280;10804;48.988;2.408;2022-07-06T12:29:04;101872.63;;;26.04;54.55
21290;BME280;10804;48.988;2.408;2022-07-06T12:31:34;101871.56;;;26.07;54.39
21290;BME280;10804;48.988;2.408;2022-07-06T12:34:02;101876.69;;;26.10;54.40
21290;BME280;10804;48.988;2.408;2022-07-06T12:36:30;101874.78;;;26.12;54.25
21290;BME280;10804;48.988;2.408;2022-07-06T12:38:57;101862.13;;;26.14;54.15
21290;BME280;10804;48.988;2.408;2022-07-06T12:41:30;101861.06;;;26.16;54.13
21290;BME280;10804;48.988;2.408;2022-07-06T12:44:05;101872.41;;;26.20;54.50
21290;BME280;10804;48.988;2.408;2022-07-06T12:46:34;101868.66;;;26.22;54.42
21290;BME280;10804;48.988;2.408;2022-07-06T12:49:11;101862.22;;;26.25;54.20
21290;BME280;10804;48.988;2.408;2022-07-06T12:51:58;101864.69;;;26.28;54.06
21290;BME280;10804;48.988;2.408;2022-07-06T12:54:28;101870.66;;;26.31;54.00
21290;BME280;10804;48.988;2.408;2022-07-06T12:57:02;101862.50;;;26.33;53.84
21290;BME280;10804;48.988;2.408;2022-07-06T12:59:34;101862.28;;;26.36;53.59
21290;BME280;10804;48.988;2.408;2022-07-06T13:02:02;101849.66;;;26.38;53.58